sensor_id;sensor_type;location;lat;lon;timestamp;pressure;altitude;pressure_sealevel;temperature;humidity
11114;BME280;5610;52.154;9.198;2023-05-25T00:02:04;101643.19;;;10.48;100.00
11114;BME280;5610;52.154;9.198;2023-05-25T00:04:50;101641.00;;;10.37;100.00
11114;BME280;5610;52.154;9.198;2023-05-25T00:07:35;101641.88;;;10.38;100.00
11114;BME280;5610;52.154;9.198;2023-05-25T00:10:22;101642.66;;;10.40;100.00
11114;BME280;5610;52.154;9.198;2023-05-25T00:13:07;101646.53;;;10.33;100.00
11114;BME280;5610;52.154;9.198;2023-05-25T00:15:53;101645.75;;;10.31;100.00
11114;BME280;5610;52.154;9.198;2023-05-25T00:18:38;101640.34;;;10.32;100.00
11114;BME280;5610;52.154;9.198;2023-05-25T00:21:23;101643.19;;;10.28;100.00
11114;BME280;5610;52.154;9.198;2023-05-25T00:24:10;101641.00;;;10.17;100.00
11114;BME280;5610;52.154;9.198;2023-05-25T00:26:57;101632.16;;;10.16;100.00
11114;BME280;5610;52.154;9.198;2023-05-25T00:29:42;101631.28;;;10.16;100.00
11114;BME280;5610;52.154;9.198;2023-05-25T00:32:27;101636.13;;;10.06;100.00
11114;BME280;5610;52.154;9.198;2023-05-25T00:35:12;101636.13;;;10.06;100.00
11114;BME280;5610;52.154;9.198;2023-05-25T00:37:57;101637.84;;;10.07;100.00
11114;BME280;5610;52.154;9.198;2023-05-25T00:40:44;101650.25;;;10.08;100.00
11114;BME280;5610;52.154;9.198;2023-05-25T00:43:30;101642.78;;;10.16;100.00
11114;BME280;5610;52.154;9.198;2023-05-25T00:46:16;101639.19;;;10.17;100.00
11114;BME280;5610;52.154;9.198;2023-05-25T00:49:01;101643.59;;;10.18;100.00
11114;BME280;5610;52.154;9.198;2023-05-25T00:51:47;101640.84;;;10.20;100.00
11114;BME280;5610;52.154;9.198;2023-05-25T00:54:32;101637.75;;;10.31;100.00
11114;BME280;5610;52.154;9.198;2023-05-25T00:57:21;101644.38;;;10.41;100.00
11114;BME280;5610;52.154;9.198;2023-05-25T01:00:11;101641.19;;;10.53;100.00
11114;BME280;5610;52.154;9.198;2023-05-25T01:02:58;101637.09;;;10.65;100.00
11114;BME280;5610;52.154;9.198;2023-05-25T01:05:46;101634.94;;;10.73;100.00
11114;BME280;5610;52.154;9.198;2023-05-25T01:08:32;101640.00;;;10.79;100.00
11114;BME280;5610;52.154;9.198;2023-05-25T01:11:19;101632.91;;;10.78;100.00
11114;BME280;5610;52.154;9.198;2023-05-25T01:14:07;101638.81;;;10.85;100.00
11114;BME280;5610;52.154;9.198;2023-05-25T01:16:53;101640.34;;;10.90;100.00
11114;BME280;5610;52.154;9.198;2023-05-25T01:19:42;101639.19;;;10.96;100.00
11114;BME280;5610;52.154;9.198;2023-05-25T01:22:32;101637.38;;;10.96;100.00
11114;BME280;5610;52.154;9.198;2023-05-25T01:25:24;101638.50;;;10.92;100.00
11114;BME280;5610;52.154;9.198;2023-05-25T01:28:15;101638.91;;;10.83;100.00
11114;BME280;5610;52.154;9.198;2023-05-25T01:31:02;101642.78;;;10.76;100.00
11114;BME280;5610;52.154;9.198;2023-05-25T01:33:48;101640.34;;;10.71;100.00
11114;BME280;5610;52.154;9.198;2023-05-25T01:36:34;101646.81;;;10.66;100.00
11114;BME280;5610;52.154;9.198;2023-05-25T01:39:24;101647.97;;;10.60;100.00
11114;BME280;5610;52.154;9.198;2023-05-25T01:42:09;101642.25;;;10.49;100.00
11114;BME280;5610;52.154;9.198;2023-05-25T01:44:54;101637.59;;;10.34;100.00
11114;BME280;5610;52.154;9.198;2023-05-25T01:47:44;101633.63;;;10.24;100.00
11114;BME280;5610;52.154;9.198;2023-05-25T01:50:35;101629.31;;;10.19;100.00
11114;BME280;5610;52.154;9.198;2023-05-25T01:53:28;101633.72;;;10.21;100.00
11114;BME280;5610;52.154;9.198;2023-05-25T01:56:16;101634.13;;;10.11;100.00
11114;BME280;5610;52.154;9.198;2023-05-25T01:59:06;101639.00;;;10.02;100.00
11114;BME280;5610;52.154;9.198;2023-05-25T02:01:52;101635.78;;;9.94;100.00
11114;BME280;5610;52.154;9.198;2023-05-25T02:04:38;101632.47;;;9.88;100.00
11114;BME280;5610;52.154;9.198;2023-05-25T02:07:24;101631.72;;;9.85;100.00
11114;BME280;5610;52.154;9.198;2023-05-25T02:10:09;101639.50;;;9.69;100.00
11114;BME280;5610;52.154;9.198;2023-05-25T02:12:56;101642.78;;;9.76;100.00
11114;BME280;5610;52.154;9.198;2023-05-25T02:15:41;101642.97;;;9.71;100.00
11114;BME280;5610;52.154;9.198;2023-05-25T02:18:26;101644.09;;;9.66;100.00
11114;BME280;5610;52.154;9.198;2023-05-25T02:21:12;101641.94;;;9.53;100.00
11114;BME280;5610;52.154;9.198;2023-05-25T02:23:59;101640.31;;;9.49;100.00
11114;BME280;5610;52.154;9.198;2023-05-25T02:26:44;101641.31;;;9.47;100.00
11114;BME280;5610;52.154;9.198;2023-05-25T02:29:31;101633.41;;;9.45;100.00
11114;BME280;5610;52.154;9.198;2023-05-25T02:32:17;101636.19;;;9.42;100.00
11114;BME280;5610;52.154;9.198;2023-05-25T02:35:04;101632.91;;;9.35;100.00
11114;BME280;5610;52.154;9.198;2023-05-25T02:37:50;101640.78;;;9.17;100.00
11114;BME280;5610;52.154;9.198;2023-05-25T02:40:35;101631.63;;;9.24;100.00
11114;BME280;5610;52.154;9.198;2023-05-25T02:43:21;101640.72;;;9.18;100.00
11114;BME280;5610;52.154;9.198;2023-05-25T02:46:07;101636.56;;;9.11;100.00
11114;BME280;5610;52.154;9.198;2023-05-25T02:48:55;101634.75;;;9.12;100.00
11114;BME280;5610;52.154;9.198;2023-05-25T02:51:42;101644.97;;;9.22;100.00
11114;BME280;5610;52.154;9.198;2023-05-25T02:54:27;101647.13;;;9.34;100.00
11114;BME280;5610;52.154;9.198;2023-05-25T02:57:12;101639.09;;;9.36;100.00
11114;BME280;5610;52.154;9.198;2023-05-25T02:59:57;101639.78;;;9.41;100.00
11114;BME280;5610;52.154;9.198;2023-05-25T03:02:44;101651.41;;;9.39;100.00
11114;BME280;5610;52.154;9.198;2023-05-25T03:05:34;101655.00;;;9.59;100.00
11114;BME280;5610;52.154;9.198;2023-05-25T03:08:19;101654.84;;;9.62;100.00
11114;BME280;5610;52.154;9.198;2023-05-25T03:11:05;101668.53;;;9.75;100.00
11114;BME280;5610;52.154;9.198;2023-05-25T03:13:51;101665.63;;;9.81;100.00
11114;BME280;5610;52.154;9.198;2023-05-25T03:16:38;101678.53;;;9.90;100.00
11114;BME280;5610;52.154;9.198;2023-05-25T03:19:25;101668.56;;;9.96;100.00
11114;BME280;5610;52.154;9.198;2023-05-25T03:22:10;101668.41;;;9.99;100.00
11114;BME280;5610;52.154;9.198;2023-05-25T03:24:55;101671.16;;;9.97;100.00
11114;BME280;5610;52.154;9.198;2023-05-25T03:27:42;101668.06;;;10.06;100.00
11114;BME280;5610;52.154;9.198;2023-05-25T03:30:27;101668.91;;;10.08;100.00
11114;BME280;5610;52.154;9.198;2023-05-25T03:33:13;101676.66;;;10.13;100.00
11114;BME280;5610;52.154;9.198;2023-05-25T03:36:06;101669.28;;;10.19;100.00
11114;BME280;5610;52.154;9.198;2023-05-25T03:38:51;101664.91;;;10.18;100.00
11114;BME280;5610;52.154;9.198;2023-05-25T03:41:37;101666.78;;;10.16;100.00
11114;BME280;5610;52.154;9.198;2023-05-25T03:44:22;101668.31;;;10.22;100.00
11114;BME280;5610;52.154;9.198;2023-05-25T03:47:07;101671.88;;;10.21;100.00
11114;BME280;5610;52.154;9.198;2023-05-25T03:49:52;101683.91;;;10.31;100.00
11114;BME280;5610;52.154;9.198;2023-05-25T03:52:39;101674.81;;;10.35;100.00
11114;BME280;5610;52.154;9.198;2023-05-25T03:55:24;101684.34;;;10.41;100.00
11114;BME280;5610;52.154;9.198;2023-05-25T03:58:11;101682.44;;;10.44;100.00
11114;BME280;5610;52.154;9.198;2023-05-25T04:00:56;101681.44;;;10.47;100.00
11114;BME280;5610;52.154;9.198;2023-05-25T04:03:41;101689.06;;;10.55;100.00
11114;BME280;5610;52.154;9.198;2023-05-25T04:06:26;101688.03;;;10.59;100.00
11114;BME280;5610;52.154;9.198;2023-05-25T04:09:14;101692.34;;;10.61;100.00
11114;BME280;5610;52.154;9.198;2023-05-25T04:11:59;101694.53;;;10.72;100.00
11114;BME280;5610;52.154;9.198;2023-05-25T04:14:46;101695.25;;;10.76;100.00
11114;BME280;5610;52.154;9.198;2023-05-25T04:17:31;101696.84;;;10.80;100.00
11114;BME280;5610;52.154;9.198;2023-05-25T04:20:17;101703.56;;;10.88;100.00
11114;BME280;5610;52.154;9.198;2023-05-25T04:23:03;101699.81;;;10.92;100.00
11114;BME280;5610;52.154;9.198;2023-05-25T04:25:50;101699.75;;;10.94;100.00
11114;BME280;5610;52.154;9.198;2023-05-25T04:28:36;101703.84;;;11.01;100.00
11114;BME280;5610;52.154;9.198;2023-05-25T04:31:31;101697.50;;;11.04;100.00
11114;BME280;5610;52.154;9.198;2023-05-25T04:34:44;101706.38;;;11.04;100.00
11114;BME280;5610;52.154;9.198;2023-05-25T04:37:42;101705.00;;;10.95;100.00
11114;BME280;5610;52.154;9.198;2023-05-25T04:40:29;101713.06;;;10.94;100.00
11114;BME280;5610;52.154;9.198;2023-05-25T04:43:17;101709.19;;;11.01;100.00
11114;BME280;5610;52.154;9.198;2023-05-25T04:46:03;101714.25;;;11.07;100.00
11114;BME280;5610;52.154;9.198;2023-05-25T04:48:51;101710.41;;;11.13;100.00
11114;BME280;5610;52.154;9.198;2023-05-25T04:51:36;101716.25;;;11.21;100.00
11114;BME280;5610;52.154;9.198;2023-05-25T04:54:21;101723.91;;;11.28;100.00
11114;BME280;5610;52.154;9.198;2023-05-25T04:57:06;101713.72;;;11.37;100.00
11114;BME280;5610;52.154;9.198;2023-05-25T04:59:53;101726.84;;;11.41;100.00
11114;BME280;5610;52.154;9.198;2023-05-25T05:02:38;101716.09;;;11.43;100.00
11114;BME280;5610;52.154;9.198;2023-05-25T05:05:24;101726.53;;;11.47;100.00
11114;BME280;5610;52.154;9.198;2023-05-25T05:08:12;101729.66;;;11.57;100.00
11114;BME280;5610;52.154;9.198;2023-05-25T05:10:57;101727.41;;;11.67;100.00
11114;BME280;5610;52.154;9.198;2023-05-25T05:13:43;101732.66;;;11.68;100.00
11114;BME280;5610;52.154;9.198;2023-05-25T05:16:30;101733.13;;;11.76;100.00
11114;BME280;5610;52.154;9.198;2023-05-25T05:19:17;101742.69;;;11.82;100.00
11114;BME280;5610;52.154;9.198;2023-05-25T05:22:03;101756.53;;;11.90;100.00
11114;BME280;5610;52.154;9.198;2023-05-25T05:24:48;101746.56;;;11.94;100.00
11114;BME280;5610;52.154;9.198;2023-05-25T05:27:39;101743.50;;;12.01;100.00
11114;BME280;5610;52.154;9.198;2023-05-25T05:30:32;101744.16;;;12.06;100.00
11114;BME280;5610;52.154;9.198;2023-05-25T05:33:19;101746.66;;;12.09;100.00
11114;BME280;5610;52.154;9.198;2023-05-25T05:36:07;101748.47;;;12.09;100.00
11114;BME280;5610;52.154;9.198;2023-05-25T05:38:53;101756.88;;;12.19;100.00
11114;BME280;5610;52.154;9.198;2023-05-25T05:41:38;101759.97;;;12.28;100.00
11114;BME280;5610;52.154;9.198;2023-05-25T05:44:26;101767.69;;;12.34;100.00
11114;BME280;5610;52.154;9.198;2023-05-25T05:47:12;101768.28;;;12.40;100.00
11114;BME280;5610;52.154;9.198;2023-05-25T05:49:59;101771.47;;;12.48;100.00
11114;BME280;5610;52.154;9.198;2023-05-25T05:52:46;101770.19;;;12.55;100.00
11114;BME280;5610;52.154;9.198;2023-05-25T05:55:31;101774.97;;;12.65;100.00
11114;BME280;5610;52.154;9.198;2023-05-25T05:58:16;101782.75;;;12.70;100.00
11114;BME280;5610;52.154;9.198;2023-05-25T06:01:01;101778.81;;;12.77;100.00
11114;BME280;5610;52.154;9.198;2023-05-25T06:03:47;101782.19;;;12.81;100.00
11114;BME280;5610;52.154;9.198;2023-05-25T06:06:35;101790.94;;;12.84;100.00
11114;BME280;5610;52.154;9.198;2023-05-25T06:09:21;101789.88;;;12.87;100.00
11114;BME280;5610;52.154;9.198;2023-05-25T06:12:07;101791.47;;;12.91;100.00
11114;BME280;5610;52.154;9.198;2023-05-25T06:14:53;101785.84;;;12.96;100.00
11114;BME280;5610;52.154;9.198;2023-05-25T06:17:38;101805.38;;;12.98;100.00
11114;BME280;5610;52.154;9.198;2023-05-25T06:20:27;101798.81;;;13.03;100.00
11114;BME280;5610;52.154;9.198;2023-05-25T06:23:13;101809.28;;;13.08;100.00
11114;BME280;5610;52.154;9.198;2023-05-25T06:26:03;101815.28;;;13.13;100.00
11114;BME280;5610;52.154;9.198;2023-05-25T06:28:49;101816.03;;;13.15;100.00
11114;BME280;5610;52.154;9.198;2023-05-25T06:31:34;101818.72;;;13.15;100.00
11114;BME280;5610;52.154;9.198;2023-05-25T06:34:20;101816.81;;;13.17;100.00
11114;BME280;5610;52.154;9.198;2023-05-25T06:37:05;101814.03;;;13.20;100.00
11114;BME280;5610;52.154;9.198;2023-05-25T06:39:51;101822.25;;;13.15;100.00
11114;BME280;5610;52.154;9.198;2023-05-25T06:42:37;101830.19;;;13.17;100.00
11114;BME280;5610;52.154;9.198;2023-05-25T06:45:40;101824.25;;;13.12;100.00
11114;BME280;5610;52.154;9.198;2023-05-25T06:48:25;101826.47;;;13.04;100.00
11114;BME280;5610;52.154;9.198;2023-05-25T06:51:11;101828.19;;;13.05;100.00
11114;BME280;5610;52.154;9.198;2023-05-25T06:53:56;101831.75;;;13.05;100.00
11114;BME280;5610;52.154;9.198;2023-05-25T06:56:43;101833.13;;;13.12;100.00
11114;BME280;5610;52.154;9.198;2023-05-25T06:59:28;101829.13;;;13.21;100.00
11114;BME280;5610;52.154;9.198;2023-05-25T07:02:14;101831.22;;;13.32;100.00
11114;BME280;5610;52.154;9.198;2023-05-25T07:04:58;101831.94;;;13.51;100.00
11114;BME280;5610;52.154;9.198;2023-05-25T07:07:44;101833.53;;;13.71;100.00
11114;BME280;5610;52.154;9.198;2023-05-25T07:10:29;101829.50;;;13.95;100.00
11114;BME280;5610;52.154;9.198;2023-05-25T07:13:16;101832.97;;;14.27;100.00
11114;BME280;5610;52.154;9.198;2023-05-25T07:16:01;101827.28;;;14.64;100.00
11114;BME280;5610;52.154;9.198;2023-05-25T07:18:46;101831.41;;;14.99;100.00
11114;BME280;5610;52.154;9.198;2023-05-25T07:21:31;101833.72;;;15.20;100.00
11114;BME280;5610;52.154;9.198;2023-05-25T07:24:16;101831.91;;;15.49;100.00
11114;BME280;5610;52.154;9.198;2023-05-25T07:27:02;101834.41;;;15.66;100.00
11114;BME280;5610;52.154;9.198;2023-05-25T07:29:49;101842.00;;;15.74;100.00
11114;BME280;5610;52.154;9.198;2023-05-25T07:32:34;101844.06;;;15.83;100.00
11114;BME280;5610;52.154;9.198;2023-05-25T07:35:21;101848.84;;;15.92;100.00
11114;BME280;5610;52.154;9.198;2023-05-25T07:38:06;101851.38;;;15.81;100.00
11114;BME280;5610;52.154;9.198;2023-05-25T07:40:51;101848.38;;;15.85;100.00
11114;BME280;5610;52.154;9.198;2023-05-25T07:43:37;101848.66;;;15.95;100.00
11114;BME280;5610;52.154;9.198;2023-05-25T07:46:24;101853.47;;;15.90;100.00
11114;BME280;5610;52.154;9.198;2023-05-25T07:49:09;101847.22;;;15.89;100.00
11114;BME280;5610;52.154;9.198;2023-05-25T07:51:58;101847.91;;;15.93;100.00
11114;BME280;5610;52.154;9.198;2023-05-25T07:54:44;101855.00;;;15.94;100.00
11114;BME280;5610;52.154;9.198;2023-05-25T07:57:29;101844.50;;;16.04;100.00
11114;BME280;5610;52.154;9.198;2023-05-25T08:00:15;101849.38;;;16.11;100.00
11114;BME280;5610;52.154;9.198;2023-05-25T08:03:02;101843.44;;;16.33;100.00
11114;BME280;5610;52.154;9.198;2023-05-25T08:05:47;101838.56;;;16.53;100.00
11114;BME280;5610;52.154;9.198;2023-05-25T08:08:32;101844.13;;;16.77;100.00
11114;BME280;5610;52.154;9.198;2023-05-25T08:11:22;101846.22;;;16.98;100.00
11114;BME280;5610;52.154;9.198;2023-05-25T08:14:08;101849.75;;;17.12;95.97
11114;BME280;5610;52.154;9.198;2023-05-25T08:16:53;101854.97;;;17.27;95.49
11114;BME280;5610;52.154;9.198;2023-05-25T08:19:40;101854.63;;;17.32;93.18
11114;BME280;5610;52.154;9.198;2023-05-25T08:22:25;101858.16;;;17.33;93.34
11114;BME280;5610;52.154;9.198;2023-05-25T08:25:10;101851.78;;;17.59;96.43
11114;BME280;5610;52.154;9.198;2023-05-25T08:27:56;101860.44;;;17.77;94.37
11114;BME280;5610;52.154;9.198;2023-05-25T08:30:41;101867.41;;;17.79;91.40
11114;BME280;5610;52.154;9.198;2023-05-25T08:33:27;101863.53;;;17.83;85.09
11114;BME280;5610;52.154;9.198;2023-05-25T08:36:14;101861.16;;;18.16;86.42
11114;BME280;5610;52.154;9.198;2023-05-25T08:39:00;101860.94;;;18.43;85.58
11114;BME280;5610;52.154;9.198;2023-05-25T08:41:45;101863.94;;;18.75;84.43
11114;BME280;5610;52.154;9.198;2023-05-25T08:44:30;101864.00;;;18.97;78.90
11114;BME280;5610;52.154;9.198;2023-05-25T08:47:16;101858.84;;;19.05;77.05
11114;BME280;5610;52.154;9.198;2023-05-25T08:50:03;101854.09;;;19.20;77.55
11114;BME280;5610;52.154;9.198;2023-05-25T08:52:52;101860.22;;;19.22;78.33
11114;BME280;5610;52.154;9.198;2023-05-25T08:55:40;101867.00;;;19.28;76.95
11114;BME280;5610;52.154;9.198;2023-05-25T08:58:30;101870.06;;;19.23;74.66
11114;BME280;5610;52.154;9.198;2023-05-25T09:01:19;101867.75;;;19.41;78.19
11114;BME280;5610;52.154;9.198;2023-05-25T09:04:05;101867.50;;;19.44;78.42
11114;BME280;5610;52.154;9.198;2023-05-25T09:06:50;101865.94;;;19.53;74.92
11114;BME280;5610;52.154;9.198;2023-05-25T09:09:37;101865.44;;;19.59;73.88
11114;BME280;5610;52.154;9.198;2023-05-25T09:12:22;101865.16;;;19.51;75.02
11114;BME280;5610;52.154;9.198;2023-05-25T09:15:09;101860.66;;;19.62;75.85
11114;BME280;5610;52.154;9.198;2023-05-25T09:17:55;101863.72;;;19.69;73.73
11114;BME280;5610;52.154;9.198;2023-05-25T09:20:40;101862.34;;;19.52;74.90
11114;BME280;5610;52.154;9.198;2023-05-25T09:23:26;101871.66;;;19.37;76.68
11114;BME280;5610;52.154;9.198;2023-05-25T09:26:12;101869.34;;;19.32;77.42
11114;BME280;5610;52.154;9.198;2023-05-25T09:28:58;101872.75;;;19.23;76.12
11114;BME280;5610;52.154;9.198;2023-05-25T09:31:43;101872.16;;;19.31;79.23
11114;BME280;5610;52.154;9.198;2023-05-25T09:34:29;101875.22;;;19.37;80.10
11114;BME280;5610;52.154;9.198;2023-05-25T09:37:16;101871.19;;;19.32;78.30
11114;BME280;5610;52.154;9.198;2023-05-25T09:40:02;101872.75;;;19.23;81.83
11114;BME280;5610;52.154;9.198;2023-05-25T09:42:49;101878.44;;;19.31;80.50
11114;BME280;5610;52.154;9.198;2023-05-25T09:45:35;101879.28;;;19.43;78.85
11114;BME280;5610;52.154;9.198;2023-05-25T09:48:21;101873.44;;;19.71;77.70
11114;BME280;5610;52.154;9.198;2023-05-25T09:51:06;101877.72;;;19.85;73.80
11114;BME280;5610;52.154;9.198;2023-05-25T09:53:52;101892.56;;;20.13;72.46
11114;BME280;5610;52.154;9.198;2023-05-25T09:56:38;101891.66;;;20.35;71.04
11114;BME280;5610;52.154;9.198;2023-05-25T09:59:25;101890.09;;;20.65;70.03
11114;BME280;5610;52.154;9.198;2023-05-25T10:02:11;101887.88;;;20.91;68.28
11114;BME280;5610;52.154;9.198;2023-05-25T10:04:57;101891.13;;;21.05;65.74
11114;BME280;5610;52.154;9.198;2023-05-25T10:07:43;101892.81;;;21.69;64.75
11114;BME280;5610;52.154;9.198;2023-05-25T10:10:29;101883.09;;;22.07;62.81
11114;BME280;5610;52.154;9.198;2023-05-25T10:13:17;101883.63;;;22.60;61.64
11114;BME280;5610;52.154;9.198;2023-05-25T10:16:06;101890.88;;;21.90;61.72
11114;BME280;5610;52.154;9.198;2023-05-25T10:19:00;101891.09;;;21.37;62.61
11114;BME280;5610;52.154;9.198;2023-05-25T10:21:51;101884.31;;;20.90;64.73
11114;BME280;5610;52.154;9.198;2023-05-25T10:24:42;101894.16;;;20.70;65.66
11114;BME280;5610;52.154;9.198;2023-05-25T10:27:37;101891.19;;;20.73;65.83
11114;BME280;5610;52.154;9.198;2023-05-25T10:30:25;101896.63;;;21.15;65.25
11114;BME280;5610;52.154;9.198;2023-05-25T10:33:12;101892.19;;;21.96;62.15
11114;BME280;5610;52.154;9.198;2023-05-25T10:35:58;101886.75;;;22.36;60.36
11114;BME280;5610;52.154;9.198;2023-05-25T10:38:44;101891.75;;;22.31;59.67
11114;BME280;5610;52.154;9.198;2023-05-25T10:41:29;101885.56;;;22.10;61.01
11114;BME280;5610;52.154;9.198;2023-05-25T10:44:15;101892.31;;;21.85;61.12
11114;BME280;5610;52.154;9.198;2023-05-25T10:47:01;101890.78;;;21.61;62.31
11114;BME280;5610;52.154;9.198;2023-05-25T10:49:52;101894.94;;;21.65;60.68
11114;BME280;5610;52.154;9.198;2023-05-25T10:52:38;101895.25;;;21.72;62.00
11114;BME280;5610;52.154;9.198;2023-05-25T10:55:23;101885.44;;;21.81;62.67
11114;BME280;5610;52.154;9.198;2023-05-25T10:58:15;101889.75;;;22.33;59.34
11114;BME280;5610;52.154;9.198;2023-05-25T11:01:02;101880.59;;;22.83;57.52
11114;BME280;5610;52.154;9.198;2023-05-25T11:03:53;101884.91;;;22.85;57.34
11114;BME280;5610;52.154;9.198;2023-05-25T11:07:06;101882.34;;;23.03;56.98
11114;BME280;5610;52.154;9.198;2023-05-25T11:09:57;101882.63;;;22.90;56.14
11114;BME280;5610;52.154;9.198;2023-05-25T11:12:44;101888.34;;;22.58;56.85
11114;BME280;5610;52.154;9.198;2023-05-25T11:15:30;101890.97;;;22.10;57.52
11114;BME280;5610;52.154;9.198;2023-05-25T11:18:15;101895.66;;;21.37;60.49
11114;BME280;5610;52.154;9.198;2023-05-25T11:21:10;101899.53;;;21.02;61.43
11114;BME280;5610;52.154;9.198;2023-05-25T11:23:59;101895.53;;;20.85;63.03
11114;BME280;5610;52.154;9.198;2023-05-25T11:26:53;101892.91;;;20.74;63.55
11114;BME280;5610;52.154;9.198;2023-05-25T11:29:39;101890.38;;;20.62;64.71
11114;BME280;5610;52.154;9.198;2023-05-25T11:32:25;101882.63;;;20.57;65.09
11114;BME280;5610;52.154;9.198;2023-05-25T11:35:11;101879.88;;;20.68;63.91
11114;BME280;5610;52.154;9.198;2023-05-25T11:37:57;101889.25;;;20.64;64.17
11114;BME280;5610;52.154;9.198;2023-05-25T11:40:44;101873.28;;;21.24;64.54
11114;BME280;5610;52.154;9.198;2023-05-25T11:43:32;101882.66;;;21.20;62.41
11114;BME280;5610;52.154;9.198;2023-05-25T11:46:20;101878.84;;;21.43;60.01
11114;BME280;5610;52.154;9.198;2023-05-25T11:49:05;101873.16;;;21.46;62.36
11114;BME280;5610;52.154;9.198;2023-05-25T11:51:50;101869.31;;;21.79;61.42
11114;BME280;5610;52.154;9.198;2023-05-25T11:54:36;101868.47;;;21.98;60.48
11114;BME280;5610;52.154;9.198;2023-05-25T11:57:25;101868.78;;;22.05;59.42
11114;BME280;5610;52.154;9.198;2023-05-25T12:00:11;101861.03;;;22.60;58.69
11114;BME280;5610;52.154;9.198;2023-05-25T12:02:57;101866.00;;;23.69;56.02
11114;BME280;5610;52.154;9.198;2023-05-25T12:05:42;101857.03;;;27.77;48.83
11114;BME280;5610;52.154;9.198;2023-05-25T12:08:31;101849.16;;;31.36;39.95
11114;BME280;5610;52.154;9.198;2023-05-25T12:11:16;101849.47;;;30.34;40.42
11114;BME280;5610;52.154;9.198;2023-05-25T12:14:05;101852.53;;;28.23;42.45
11114;BME280;5610;52.154;9.198;2023-05-25T12:16:51;101850.88;;;26.70;45.47
11114;BME280;5610;52.154;9.198;2023-05-25T12:19:36;101853.47;;;25.63;47.34
11114;BME280;5610;52.154;9.198;2023-05-25T12:22:21;101851.09;;;24.19;51.32
11114;BME280;5610;52.154;9.198;2023-05-25T12:25:08;101855.44;;;23.00;54.04
11114;BME280;5610;52.154;9.198;2023-05-25T12:28:09;101842.44;;;22.36;54.42
11114;BME280;5610;52.154;9.198;2023-05-25T12:30:56;101843.91;;;21.90;56.25
11114;BME280;5610;52.154;9.198;2023-05-25T12:33:41;101837.06;;;21.55;58.34
11114;BME280;5610;52.154;9.198;2023-05-25T12:36:43;101838.34;;;21.51;60.61
11114;BME280;5610;52.154;9.198;2023-05-25T12:39:33;101840.94;;;21.62;59.78
11114;BME280;5610;52.154;9.198;2023-05-25T12:42:21;101834.06;;;21.99;58.24
11114;BME280;5610;52.154;9.198;2023-05-25T12:45:10;101837.16;;;22.92;57.89
11114;BME280;5610;52.154;9.198;2023-05-25T12:47:57;101825.72;;;23.73;52.77
11114;BME280;5610;52.154;9.198;2023-05-25T12:50:57;101831.63;;;24.41;51.73
11114;BME280;5610;52.154;9.198;2023-05-25T12:53:48;101826.56;;;25.42;49.36
11114;BME280;5610;52.154;9.198;2023-05-25T12:56:52;101823.22;;;25.56;47.89
11114;BME280;5610;52.154;9.198;2023-05-25T12:59:38;101828.75;;;25.30;50.27
11114;BME280;5610;52.154;9.198;2023-05-25T13:02:24;101840.66;;;25.29;48.81
11114;BME280;5610;52.154;9.198;2023-05-25T13:05:17;101828.44;;;24.89;49.50
11114;BME280;5610;52.154;9.198;2023-05-25T13:08:03;101823.03;;;25.84;47.00
11114;BME280;5610;52.154;9.198;2023-05-25T13:10:49;101826.16;;;25.97;47.61
11114;BME280;5610;52.154;9.198;2023-05-25T13:13:34;101818.47;;;25.24;50.13
11114;BME280;5610;52.154;9.198;2023-05-25T13:16:20;101825.31;;;24.41;51.50
11114;BME280;5610;52.154;9.198;2023-05-25T13:19:05;101816.88;;;23.89;51.25
11114;BME280;5610;52.154;9.198;2023-05-25T13:21:52;101823.53;;;23.49;52.93
11114;BME280;5610;52.154;9.198;2023-05-25T13:24:38;101817.09;;;23.13;53.53
11114;BME280;5610;52.154;9.198;2023-05-25T13:27:23;101806.94;;;24.60;53.27
11114;BME280;5610;52.154;9.198;2023-05-25T13:30:09;101809.09;;;24.57;51.00
11114;BME280;5610;52.154;9.198;2023-05-25T13:32:55;101803.41;;;24.50;51.09
11114;BME280;5610;52.154;9.198;2023-05-25T13:35:41;101812.66;;;24.22;51.37
11114;BME280;5610;52.154;9.198;2023-05-25T13:38:41;101797.53;;;23.92;51.95
11114;BME280;5610;52.154;9.198;2023-05-25T13:41:28;101803.78;;;23.74;53.12
11114;BME280;5610;52.154;9.198;2023-05-25T13:44:13;101801.34;;;23.44;53.85
11114;BME280;5610;52.154;9.198;2023-05-25T13:46:58;101808.72;;;23.24;54.41
11114;BME280;5610;52.154;9.198;2023-05-25T13:49:44;101806.09;;;22.95;54.47
11114;BME280;5610;52.154;9.198;2023-05-25T13:52:29;101795.72;;;22.42;55.29
11114;BME280;5610;52.154;9.198;2023-05-25T13:55:16;101790.81;;;22.07;56.56
11114;BME280;5610;52.154;9.198;2023-05-25T13:58:01;101795.56;;;21.64;57.99
11114;BME280;5610;52.154;9.198;2023-05-25T14:00:47;101793.75;;;21.13;59.05
11114;BME280;5610;52.154;9.198;2023-05-25T14:03:32;101789.50;;;20.90;59.54
11114;BME280;5610;52.154;9.198;2023-05-25T14:06:17;101796.03;;;21.08;58.82
11114;BME280;5610;52.154;9.198;2023-05-25T14:09:02;101787.75;;;21.71;58.71
11114;BME280;5610;52.154;9.198;2023-05-25T14:11:49;101780.84;;;22.17;57.73
11114;BME280;5610;52.154;9.198;2023-05-25T14:14:35;101783.09;;;22.60;56.61
11114;BME280;5610;52.154;9.198;2023-05-25T14:17:20;101782.75;;;23.02;54.82
11114;BME280;5610;52.154;9.198;2023-05-25T14:20:06;101774.91;;;23.91;54.11
11114;BME280;5610;52.154;9.198;2023-05-25T14:22:52;101777.78;;;25.05;50.13
11114;BME280;5610;52.154;9.198;2023-05-25T14:25:38;101780.50;;;25.31;49.24
11114;BME280;5610;52.154;9.198;2023-05-25T14:28:24;101778.84;;;25.12;49.64
11114;BME280;5610;52.154;9.198;2023-05-25T14:31:09;101770.38;;;24.71;49.07
11114;BME280;5610;52.154;9.198;2023-05-25T14:33:55;101772.38;;;24.25;50.58
11114;BME280;5610;52.154;9.198;2023-05-25T14:36:40;101771.78;;;23.86;51.07
11114;BME280;5610;52.154;9.198;2023-05-25T14:39:26;101782.25;;;23.63;51.48